sensor_id;sensor_type;location;lat;lon;timestamp;temperature;humidity
43999;DHT22;51319;52.162;5.302;2022-12-07T00:01:38;4.00;99.90
43999;DHT22;51319;52.162;5.302;2022-12-07T00:04:07;3.90;99.90
43999;DHT22;51319;52.162;5.302;2022-12-07T00:06:43;3.80;99.90
43999;DHT22;51319;52.162;5.302;2022-12-07T00:09:12;3.70;99.90
43999;DHT22;51319;52.162;5.302;2022-12-07T00:11:39;3.60;99.90
43999;DHT22;51319;52.162;5.302;2022-12-07T00:14:10;3.50;99.90
43999;DHT22;51319;52.162;5.302;2022-12-07T00:16:38;3.50;99.90
43999;DHT22;51319;52.162;5.302;2022-12-07T00:19:05;3.40;99.90
43999;DHT22;51319;52.162;5.302;2022-12-07T00:21:34;3.30;99.90
43999;DHT22;51319;52.162;5.302;2022-12-07T00:24:02;3.30;99.90
43999;DHT22;51319;52.162;5.302;2022-12-07T00:26:35;3.20;99.90
43999;DHT22;51319;52.162;5.302;2022-12-07T00:29:06;3.20;99.90
43999;DHT22;51319;52.162;5.302;2022-12-07T00:31:36;3.20;99.90
43999;DHT22;51319;52.162;5.302;2022-12-07T00:34:17;3.20;99.90
43999;DHT22;51319;52.162;5.302;2022-12-07T00:36:45;3.30;99.90
43999;DHT22;51319;52.162;5.302;2022-12-07T00:39:11;3.30;99.90
43999;DHT22;51319;52.162;5.302;2022-12-07T00:41:38;3.30;99.90
43999;DHT22;51319;52.162;5.302;2022-12-07T00:44:05;3.30;99.90
43999;DHT22;51319;52.162;5.302;2022-12-07T00:46:32;3.30;99.90
43999;DHT22;51319;52.162;5.302;2022-12-07T00:48:59;3.20;99.90
43999;DHT22;51319;52.162;5.302;2022-12-07T00:51:26;3.10;99.90
43999;DHT22;51319;52.162;5.302;2022-12-07T00:53:53;3.00;99.90
43999;DHT22;51319;52.162;5.302;2022-12-07T00:56:26;3.00;99.90
43999;DHT22;51319;52.162;5.302;2022-12-07T00:59:03;2.90;99.90
43999;DHT22;51319;52.162;5.302;2022-12-07T01:01:35;2.80;99.90
43999;DHT22;51319;52.162;5.302;2022-12-07T01:04:03;2.80;99.90
43999;DHT22;51319;52.162;5.302;2022-12-07T01:06:31;2.80;99.90
43999;DHT22;51319;52.162;5.302;2022-12-07T01:08:58;2.70;99.90
43999;DHT22;51319;52.162;5.302;2022-12-07T01:11:28;2.70;99.90
43999;DHT22;51319;52.162;5.302;2022-12-07T01:13:57;2.70;99.90
43999;DHT22;51319;52.162;5.302;2022-12-07T01:16:25;2.70;99.90
43999;DHT22;51319;52.162;5.302;2022-12-07T01:18:54;2.80;99.90
43999;DHT22;51319;52.162;5.302;2022-12-07T01:21:26;2.80;99.90
43999;DHT22;51319;52.162;5.302;2022-12-07T01:23:53;2.80;99.90
43999;DHT22;51319;52.162;5.302;2022-12-07T01:26:22;2.80;99.90
43999;DHT22;51319;52.162;5.302;2022-12-07T01:28:49;2.70;99.90
43999;DHT22;51319;52.162;5.302;2022-12-07T01:31:19;2.70;99.90
43999;DHT22;51319;52.162;5.302;2022-12-07T01:33:52;2.60;99.90
43999;DHT22;51319;52.162;5.302;2022-12-07T01:36:25;2.50;99.90
43999;DHT22;51319;52.162;5.302;2022-12-07T01:38:55;2.50;99.90
43999;DHT22;51319;52.162;5.302;2022-12-07T01:41:25;2.40;99.90
43999;DHT22;51319;52.162;5.302;2022-12-07T01:46:51;2.30;99.90
43999;DHT22;51319;52.162;5.302;2022-12-07T01:49:40;2.30;99.90
43999;DHT22;51319;52.162;5.302;2022-12-07T01:52:16;2.20;99.90
43999;DHT22;51319;52.162;5.302;2022-12-07T01:54:48;2.20;99.90
43999;DHT22;51319;52.162;5.302;2022-12-07T01:57:17;2.10;99.90
43999;DHT22;51319;52.162;5.302;2022-12-07T01:59:45;2.10;99.90
43999;DHT22;51319;52.162;5.302;2022-12-07T02:02:29;2.00;99.90
43999;DHT22;51319;52.162;5.302;2022-12-07T02:05:00;2.00;99.90
43999;DHT22;51319;52.162;5.302;2022-12-07T02:07:28;2.00;99.90
43999;DHT22;51319;52.162;5.302;2022-12-07T02:09:55;2.00;99.90
43999;DHT22;51319;52.162;5.302;2022-12-07T02:12:23;2.00;99.90
43999;DHT22;51319;52.162;5.302;2022-12-07T02:14:51;2.20;99.90
43999;DHT22;51319;52.162;5.302;2022-12-07T02:17:29;2.30;99.90
43999;DHT22;51319;52.162;5.302;2022-12-07T02:20:41;2.50;99.90
43999;DHT22;51319;52.162;5.302;2022-12-07T02:23:32;2.60;99.90
43999;DHT22;51319;52.162;5.302;2022-12-07T02:26:31;2.70;99.90
43999;DHT22;51319;52.162;5.302;2022-12-07T02:29:16;2.70;99.90
43999;DHT22;51319;52.162;5.302;2022-12-07T02:31:54;2.60;99.90
43999;DHT22;51319;52.162;5.302;2022-12-07T02:37:20;2.60;99.90
43999;DHT22;51319;52.162;5.302;2022-12-07T02:40:29;2.50;99.90
43999;DHT22;51319;52.162;5.302;2022-12-07T02:43:19;2.50;99.90
43999;DHT22;51319;52.162;5.302;2022-12-07T02:45:50;2.60;99.90
43999;DHT22;51319;52.162;5.302;2022-12-07T02:48:19;2.70;99.90
43999;DHT22;51319;52.162;5.302;2022-12-07T02:50:51;2.70;99.90
43999;DHT22;51319;52.162;5.302;2022-12-07T02:53:50;2.80;99.90
43999;DHT22;51319;52.162;5.302;2022-12-07T02:56:42;2.90;99.90
43999;DHT22;51319;52.162;5.302;2022-12-07T03:15:57;3.00;99.90
43999;DHT22;51319;52.162;5.302;2022-12-07T03:18:49;3.00;99.90
43999;DHT22;51319;52.162;5.302;2022-12-07T03:24:11;3.00;99.90
43999;DHT22;51319;52.162;5.302;2022-12-07T03:26:45;2.90;99.90
43999;DHT22;51319;52.162;5.302;2022-12-07T03:29:22;2.90;99.90
43999;DHT22;51319;52.162;5.302;2022-12-07T03:32:19;2.80;99.90
43999;DHT22;51319;52.162;5.302;2022-12-07T03:34:47;2.80;99.90
43999;DHT22;51319;52.162;5.302;2022-12-07T03:37:33;2.70;99.90
43999;DHT22;51319;52.162;5.302;2022-12-07T03:42:33;2.50;99.90
43999;DHT22;51319;52.162;5.302;2022-12-07T03:45:04;2.40;99.90
43999;DHT22;51319;52.162;5.302;2022-12-07T03:47:35;2.40;99.90
43999;DHT22;51319;52.162;5.302;2022-12-07T03:52:52;2.70;99.90
43999;DHT22;51319;52.162;5.302;2022-12-07T03:55:29;2.70;99.90
43999;DHT22;51319;52.162;5.302;2022-12-07T03:58:02;2.70;99.90
43999;DHT22;51319;52.162;5.302;2022-12-07T04:00:30;2.70;99.90
43999;DHT22;51319;52.162;5.302;2022-12-07T04:02:58;2.80;99.90
43999;DHT22;51319;52.162;5.302;2022-12-07T04:05:25;2.80;99.90
43999;DHT22;51319;52.162;5.302;2022-12-07T04:07:52;2.80;99.90
43999;DHT22;51319;52.162;5.302;2022-12-07T04:10:19;2.90;99.90
43999;DHT22;51319;52.162;5.302;2022-12-07T04:12:46;3.00;99.90
43999;DHT22;51319;52.162;5.302;2022-12-07T04:15:13;3.00;99.90
43999;DHT22;51319;52.162;5.302;2022-12-07T04:17:40;3.10;99.90
43999;DHT22;51319;52.162;5.302;2022-12-07T04:20:07;3.10;99.90
43999;DHT22;51319;52.162;5.302;2022-12-07T04:22:35;3.20;99.90
43999;DHT22;51319;52.162;5.302;2022-12-07T04:25:02;3.20;99.90
43999;DHT22;51319;52.162;5.302;2022-12-07T04:27:29;3.10;99.90
43999;DHT22;51319;52.162;5.302;2022-12-07T04:29:55;3.00;99.90
43999;DHT22;51319;52.162;5.302;2022-12-07T04:32:23;2.90;99.90
43999;DHT22;51319;52.162;5.302;2022-12-07T04:34:50;2.80;99.90
43999;DHT22;51319;52.162;5.302;2022-12-07T04:37:22;2.80;99.90
43999;DHT22;51319;52.162;5.302;2022-12-07T04:39:48;2.80;99.90
43999;DHT22;51319;52.162;5.302;2022-12-07T04:42:15;2.90;99.90
43999;DHT22;51319;52.162;5.302;2022-12-07T04:44:42;3.00;99.90
43999;DHT22;51319;52.162;5.302;2022-12-07T04:47:09;3.00;99.90
43999;DHT22;51319;52.162;5.302;2022-12-07T04:49:36;3.10;99.90
43999;DHT22;51319;52.162;5.302;2022-12-07T04:52:02;3.10;99.90
43999;DHT22;51319;52.162;5.302;2022-12-07T04:54:29;3.10;99.90
43999;DHT22;51319;52.162;5.302;2022-12-07T04:56:56;3.20;99.90
43999;DHT22;51319;52.162;5.302;2022-12-07T04:59:23;3.20;99.90
43999;DHT22;51319;52.162;5.302;2022-12-07T05:01:50;3.20;99.90
43999;DHT22;51319;52.162;5.302;2022-12-07T05:04:17;3.10;99.90
43999;DHT22;51319;52.162;5.302;2022-12-07T05:06:44;3.00;99.90
43999;DHT22;51319;52.162;5.302;2022-12-07T05:09:11;2.90;99.90
43999;DHT22;51319;52.162;5.302;2022-12-07T05:11:38;2.90;99.90
43999;DHT22;51319;52.162;5.302;2022-12-07T05:14:17;2.80;99.90
43999;DHT22;51319;52.162;5.302;2022-12-07T05:16:46;2.70;99.90
43999;DHT22;51319;52.162;5.302;2022-12-07T05:19:14;2.60;99.90
43999;DHT22;51319;52.162;5.302;2022-12-07T05:21:41;2.60;99.90
43999;DHT22;51319;52.162;5.302;2022-12-07T05:24:10;2.50;99.90
43999;DHT22;51319;52.162;5.302;2022-12-07T05:26:37;2.50;99.90
43999;DHT22;51319;52.162;5.302;2022-12-07T05:29:04;2.40;99.90
43999;DHT22;51319;52.162;5.302;2022-12-07T05:31:32;2.40;99.90
43999;DHT22;51319;52.162;5.302;2022-12-07T05:34:00;2.40;99.90
43999;DHT22;51319;52.162;5.302;2022-12-07T05:36:27;2.30;99.90
43999;DHT22;51319;52.162;5.302;2022-12-07T05:38:55;2.30;99.90
43999;DHT22;51319;52.162;5.302;2022-12-07T05:41:22;2.30;99.90
43999;DHT22;51319;52.162;5.302;2022-12-07T05:44:07;2.20;99.90
43999;DHT22;51319;52.162;5.302;2022-12-07T05:46:34;2.20;99.90
43999;DHT22;51319;52.162;5.302;2022-12-07T05:49:02;2.20;99.90
43999;DHT22;51319;52.162;5.302;2022-12-07T05:51:29;2.20;99.90
43999;DHT22;51319;52.162;5.302;2022-12-07T05:53:56;2.30;99.90
43999;DHT22;51319;52.162;5.302;2022-12-07T05:56:23;2.30;99.90
43999;DHT22;51319;52.162;5.302;2022-12-07T05:58:50;2.30;99.90
43999;DHT22;51319;52.162;5.302;2022-12-07T06:01:35;2.30;99.90
43999;DHT22;51319;52.162;5.302;2022-12-07T06:04:02;2.40;99.90
43999;DHT22;51319;52.162;5.302;2022-12-07T06:06:29;2.40;99.90
43999;DHT22;51319;52.162;5.302;2022-12-07T06:08:56;2.50;99.90
43999;DHT22;51319;52.162;5.302;2022-12-07T06:11:23;2.50;99.90
43999;DHT22;51319;52.162;5.302;2022-12-07T06:14:08;2.60;99.90
43999;DHT22;51319;52.162;5.302;2022-12-07T06:16:35;2.60;99.90
43999;DHT22;51319;52.162;5.302;2022-12-07T06:19:02;2.60;99.90
43999;DHT22;51319;52.162;5.302;2022-12-07T06:21:29;2.70;99.90
43999;DHT22;51319;52.162;5.302;2022-12-07T06:23:56;2.80;99.90
43999;DHT22;51319;52.162;5.302;2022-12-07T06:26:26;2.80;99.90
43999;DHT22;51319;52.162;5.302;2022-12-07T06:28:52;2.70;99.90
43999;DHT22;51319;52.162;5.302;2022-12-07T06:31:19;2.60;99.90
43999;DHT22;51319;52.162;5.302;2022-12-07T06:33:46;2.50;99.90
43999;DHT22;51319;52.162;5.302;2022-12-07T06:36:13;2.60;99.90
43999;DHT22;51319;52.162;5.302;2022-12-07T06:38:40;2.60;99.90
43999;DHT22;51319;52.162;5.302;2022-12-07T06:41:07;2.60;99.90
43999;DHT22;51319;52.162;5.302;2022-12-07T06:43:34;2.60;99.90
43999;DHT22;51319;52.162;5.302;2022-12-07T06:46:01;2.60;99.90
43999;DHT22;51319;52.162;5.302;2022-12-07T06:48:27;2.70;99.90
43999;DHT22;51319;52.162;5.302;2022-12-07T06:50:54;2.80;99.90
43999;DHT22;51319;52.162;5.302;2022-12-07T06:53:22;2.70;99.90
43999;DHT22;51319;52.162;5.302;2022-12-07T06:55:49;2.70;99.90
43999;DHT22;51319;52.162;5.302;2022-12-07T06:58:17;2.60;99.90
43999;DHT22;51319;52.162;5.302;2022-12-07T07:00:44;2.60;99.90
43999;DHT22;51319;52.162;5.302;2022-12-07T07:03:12;2.50;99.90
43999;DHT22;51319;52.162;5.302;2022-12-07T07:05:38;2.50;99.90
43999;DHT22;51319;52.162;5.302;2022-12-07T07:08:05;2.50;99.90
43999;DHT22;51319;52.162;5.302;2022-12-07T07:10:49;2.50;99.90
43999;DHT22;51319;52.162;5.302;2022-12-07T07:13:16;2.50;99.90
43999;DHT22;51319;52.162;5.302;2022-12-07T07:15:43;2.50;99.90
43999;DHT22;51319;52.162;5.302;2022-12-07T07:18:10;2.50;99.90
43999;DHT22;51319;52.162;5.302;2022-12-07T07:20:41;2.50;99.90
43999;DHT22;51319;52.162;5.302;2022-12-07T07:23:08;2.50;99.90
43999;DHT22;51319;52.162;5.302;2022-12-07T07:25:35;2.50;99.90
43999;DHT22;51319;52.162;5.302;2022-12-07T07:28:02;2.50;99.90
43999;DHT22;51319;52.162;5.302;2022-12-07T07:30:29;2.30;99.90
43999;DHT22;51319;52.162;5.302;2022-12-07T07:33:00;2.30;99.90
43999;DHT22;51319;52.162;5.302;2022-12-07T07:35:29;2.20;99.90
43999;DHT22;51319;52.162;5.302;2022-12-07T07:37:57;2.10;99.90
43999;DHT22;51319;52.162;5.302;2022-12-07T07:40:24;2.10;99.90
43999;DHT22;51319;52.162;5.302;2022-12-07T07:42:52;2.20;99.90
43999;DHT22;51319;52.162;5.302;2022-12-07T07:45:20;2.20;99.90
43999;DHT22;51319;52.162;5.302;2022-12-07T07:47:48;2.20;99.90
43999;DHT22;51319;52.162;5.302;2022-12-07T07:50:15;2.10;99.90
43999;DHT22;51319;52.162;5.302;2022-12-07T07:52:42;2.10;99.90
43999;DHT22;51319;52.162;5.302;2022-12-07T07:55:09;2.00;99.90
43999;DHT22;51319;52.162;5.302;2022-12-07T07:57:38;2.00;99.90
43999;DHT22;51319;52.162;5.302;2022-12-07T08:00:08;2.00;99.90
43999;DHT22;51319;52.162;5.302;2022-12-07T08:02:35;2.10;99.90
43999;DHT22;51319;52.162;5.302;2022-12-07T08:05:03;2.10;99.90
43999;DHT22;51319;52.162;5.302;2022-12-07T08:07:30;2.20;99.90
43999;DHT22;51319;52.162;5.302;2022-12-07T08:09:57;2.20;99.90
43999;DHT22;51319;52.162;5.302;2022-12-07T08:12:24;2.20;99.90
43999;DHT22;51319;52.162;5.302;2022-12-07T08:14:51;2.30;99.90
43999;DHT22;51319;52.162;5.302;2022-12-07T08:17:18;2.50;99.90
43999;DHT22;51319;52.162;5.302;2022-12-07T08:19:44;2.70;99.90
43999;DHT22;51319;52.162;5.302;2022-12-07T08:22:11;3.00;99.90
43999;DHT22;51319;52.162;5.302;2022-12-07T08:24:39;3.30;99.90
43999;DHT22;51319;52.162;5.302;2022-12-07T08:27:11;3.40;99.90
43999;DHT22;51319;52.162;5.302;2022-12-07T08:29:39;3.50;99.90
43999;DHT22;51319;52.162;5.302;2022-12-07T08:32:05;3.50;99.90
43999;DHT22;51319;52.162;5.302;2022-12-07T08:34:35;3.50;99.90
43999;DHT22;51319;52.162;5.302;2022-12-07T08:37:03;3.40;99.90
43999;DHT22;51319;52.162;5.302;2022-12-07T08:39:30;3.40;99.90
43999;DHT22;51319;52.162;5.302;2022-12-07T08:41:58;3.50;99.90
43999;DHT22;51319;52.162;5.302;2022-12-07T08:44:25;3.60;99.90
43999;DHT22;51319;52.162;5.302;2022-12-07T08:46:58;3.80;99.90
43999;DHT22;51319;52.162;5.302;2022-12-07T08:49:38;3.90;99.90
43999;DHT22;51319;52.162;5.302;2022-12-07T08:52:06;4.10;99.90
43999;DHT22;51319;52.162;5.302;2022-12-07T08:54:35;4.10;99.90
43999;DHT22;51319;52.162;5.302;2022-12-07T08:57:03;4.20;99.90
43999;DHT22;51319;52.162;5.302;2022-12-07T08:59:30;4.30;99.90
43999;DHT22;51319;52.162;5.302;2022-12-07T09:01:57;4.30;99.90
43999;DHT22;51319;52.162;5.302;2022-12-07T09:04:24;4.50;99.90
43999;DHT22;51319;52.162;5.302;2022-12-07T09:06:51;4.60;99.90
43999;DHT22;51319;52.162;5.302;2022-12-07T09:09:18;4.70;99.90
43999;DHT22;51319;52.162;5.302;2022-12-07T09:11:45;4.70;99.90
43999;DHT22;51319;52.162;5.302;2022-12-07T09:14:12;4.70;99.90
43999;DHT22;51319;52.162;5.302;2022-12-07T09:16:39;4.70;99.90
43999;DHT22;51319;52.162;5.302;2022-12-07T09:19:07;4.80;99.90
43999;DHT22;51319;52.162;5.302;2022-12-07T09:21:35;4.90;99.90
43999;DHT22;51319;52.162;5.302;2022-12-07T09:24:03;5.00;99.90
43999;DHT22;51319;52.162;5.302;2022-12-07T09:26:30;5.00;99.90
43999;DHT22;51319;52.162;5.302;2022-12-07T09:28:57;5.10;99.90
43999;DHT22;51319;52.162;5.302;2022-12-07T09:31:24;5.10;99.90
43999;DHT22;51319;52.162;5.302;2022-12-07T09:34:00;5.10;99.90
43999;DHT22;51319;52.162;5.302;2022-12-07T09:36:28;5.20;99.90
43999;DHT22;51319;52.162;5.302;2022-12-07T09:38:55;5.30;99.90
43999;DHT22;51319;52.162;5.302;2022-12-07T09:41:23;5.50;99.90
43999;DHT22;51319;52.162;5.302;2022-12-07T09:43:52;5.60;99.90
43999;DHT22;51319;52.162;5.302;2022-12-07T09:46:20;5.80;99.90
43999;DHT22;51319;52.162;5.302;2022-12-07T09:48:49;6.30;99.90
43999;DHT22;51319;52.162;5.302;2022-12-07T09:51:19;6.40;99.90
43999;DHT22;51319;52.162;5.302;2022-12-07T09:53:54;6.30;99.90
43999;DHT22;51319;52.162;5.302;2022-12-07T09:56:22;6.20;99.90
43999;DHT22;51319;52.162;5.302;2022-12-07T09:58:59;6.20;99.90
43999;DHT22;51319;52.162;5.302;2022-12-07T10:01:29;6.10;99.90
43999;DHT22;51319;52.162;5.302;2022-12-07T10:04:19;6.10;99.90
43999;DHT22;51319;52.162;5.302;2022-12-07T10:06:48;6.10;99.90
43999;DHT22;51319;52.162;5.302;2022-12-07T10:09:20;6.10;99.90
43999;DHT22;51319;52.162;5.302;2022-12-07T10:12:04;6.20;99.90
43999;DHT22;51319;52.162;5.302;2022-12-07T10:14:33;6.30;99.90
43999;DHT22;51319;52.162;5.302;2022-12-07T10:17:35;6.40;99.90
43999;DHT22;51319;52.162;5.302;2022-12-07T10:20:29;6.40;99.90
43999;DHT22;51319;52.162;5.302;2022-12-07T10:25:37;6.30;99.90
43999;DHT22;51319;52.162;5.302;2022-12-07T10:31:02;6.00;99.90
43999;DHT22;51319;52.162;5.302;2022-12-07T10:33:48;6.50;99.90
43999;DHT22;51319;52.162;5.302;2022-12-07T10:36:37;6.90;99.90
43999;DHT22;51319;52.162;5.302;2022-12-07T10:39:15;7.20;99.90
43999;DHT22;51319;52.162;5.302;2022-12-07T10:41:59;8.10;99.90
43999;DHT22;51319;52.162;5.302;2022-12-07T10:44:32;8.40;99.90
43999;DHT22;51319;52.162;5.302;2022-12-07T10:55:37;7.40;99.80
43999;DHT22;51319;52.162;5.302;2022-12-07T10:58:27;7.70;99.90
43999;DHT22;51319;52.162;5.302;2022-12-07T11:10:12;7.90;98.70
43999;DHT22;51319;52.162;5.302;2022-12-07T11:16:19;7.50;98.90
43999;DHT22;51319;52.162;5.302;2022-12-07T11:19:10;7.40;99.00
43999;DHT22;51319;52.162;5.302;2022-12-07T11:22:04;7.30;99.10
43999;DHT22;51319;52.162;5.302;2022-12-07T11:24:44;7.10;98.90
43999;DHT22;51319;52.162;5.302;2022-12-07T11:27:33;7.00;99.10
43999;DHT22;51319;52.162;5.302;2022-12-07T11:35:33;8.40;99.90
43999;DHT22;51319;52.162;5.302;2022-12-07T11:38:15;9.10;98.00
43999;DHT22;51319;52.162;5.302;2022-12-07T11:40:48;9.10;96.30
43999;DHT22;51319;52.162;5.302;2022-12-07T11:43:34;8.70;95.50
43999;DHT22;51319;52.162;5.302;2022-12-07T11:46:10;8.80;96.70
43999;DHT22;51319;52.162;5.302;2022-12-07T11:48:43;9.30;95.60
43999;DHT22;51319;52.162;5.302;2022-12-07T11:51:13;9.00;93.90
43999;DHT22;51319;52.162;5.302;2022-12-07T11:54:17;8.40;93.80
43999;DHT22;51319;52.162;5.302;2022-12-07T11:56:47;8.00;94.40
43999;DHT22;51319;52.162;5.302;2022-12-07T11:59:27;7.60;95.00
43999;DHT22;51319;52.162;5.302;2022-12-07T12:01:57;7.40;95.50
43999;DHT22;51319;52.162;5.302;2022-12-07T12:07:06;7.20;96.00
43999;DHT22;51319;52.162;5.302;2022-12-07T12:21:00;6.80;96.70
43999;DHT22;51319;52.162;5.302;2022-12-07T12:23:42;6.80;96.80
43999;DHT22;51319;52.162;5.302;2022-12-07T12:26:35;6.80;96.80
43999;DHT22;51319;52.162;5.302;2022-12-07T12:29:19;6.90;96.90
43999;DHT22;51319;52.162;5.302;2022-12-07T12:32:07;7.00;96.80
43999;DHT22;51319;52.162;5.302;2022-12-07T12:35:01;7.20;96.70
43999;DHT22;51319;52.162;5.302;2022-12-07T12:42:58;8.00;96.30
43999;DHT22;51319;52.162;5.302;2022-12-07T12:45:32;8.30;95.80
43999;DHT22;51319;52.162;5.302;2022-12-07T12:48:00;8.40;95.00
43999;DHT22;51319;52.162;5.302;2022-12-07T12:50:35;8.30;93.60
43999;DHT22;51319;52.162;5.302;2022-12-07T12:53:25;8.10;92.40
43999;DHT22;51319;52.162;5.302;2022-12-07T12:58:37;7.50;92.30
43999;DHT22;51319;52.162;5.302;2022-12-07T13:03:55;6.80;93.40
43999;DHT22;51319;52.162;5.302;2022-12-07T13:08:55;6.50;94.60
43999;DHT22;51319;52.162;5.302;2022-12-07T13:11:36;6.40;95.20
43999;DHT22;51319;52.162;5.302;2022-12-07T13:17:36;6.20;96.20
43999;DHT22;51319;52.162;5.302;2022-12-07T13:19:54;6.20;96.40
43999;DHT22;51319;52.162;5.302;2022-12-07T13:25:07;6.10;96.70
43999;DHT22;51319;52.162;5.302;2022-12-07T13:27:37;6.10;97.10
43999;DHT22;51319;52.162;5.302;2022-12-07T13:30:22;6.00;97.40
43999;DHT22;51319;52.162;5.302;2022-12-07T13:32:53;5.90;97.70
43999;DHT22;51319;52.162;5.302;2022-12-07T13:35:37;5.90;97.90
43999;DHT22;51319;52.162;5.302;2022-12-07T13:38:18;6.00;98.20
43999;DHT22;51319;52.162;5.302;2022-12-07T13:43:31;6.00;98.60
43999;DHT22;51319;52.162;5.302;2022-12-07T13:45:59;6.00;99.00
43999;DHT22;51319;52.162;5.302;2022-12-07T13:48:32;6.10;99.30
43999;DHT22;51319;52.162;5.302;2022-12-07T13:51:02;6.20;99.50
43999;DHT22;51319;52.162;5.302;2022-12-07T13:53:32;6.20;99.60
43999;DHT22;51319;52.162;5.302;2022-12-07T13:56:00;6.30;99.60
43999;DHT22;51319;52.162;5.302;2022-12-07T13:58:30;6.30;99.70
43999;DHT22;51319;52.162;5.302;2022-12-07T14:00:58;6.30;99.90
43999;DHT22;51319;52.162;5.302;2022-12-07T14:03:33;6.30;99.90
43999;DHT22;51319;52.162;5.302;2022-12-07T14:06:16;6.40;99.90
43999;DHT22;51319;52.162;5.302;2022-12-07T14:08:44;6.40;99.90
43999;DHT22;51319;52.162;5.302;2022-12-07T14:11:18;6.40;99.90
43999;DHT22;51319;52.162;5.302;2022-12-07T14:13:56;6.40;99.90
43999;DHT22;51319;52.162;5.302;2022-12-07T14:16:36;6.40;99.90
43999;DHT22;51319;52.162;5.302;2022-12-07T14:19:06;6.40;99.90
43999;DHT22;51319;52.162;5.302;2022-12-07T14:22:28;6.40;99.90
43999;DHT22;51319;52.162;5.302;2022-12-07T14:25:19;6.40;99.90
43999;DHT22;51319;52.162;5.302;2022-12-07T14:30:17;6.40;99.90
43999;DHT22;51319;52.162;5.302;2022-12-07T14:32:44;6.30;99.80
43999;DHT22;51319;52.162;5.302;2022-12-07T14:35:17;6.20;99.70
43999;DHT22;51319;52.162;5.302;2022-12-07T14:37:46;6.10;99.70
43999;DHT22;51319;52.162;5.302;2022-12-07T14:40:34;6.10;99.40
43999;DHT22;51319;52.162;5.302;2022-12-07T14:43:04;6.00;99.30
43999;DHT22;51319;52.162;5.302;2022-12-07T14:45:32;6.00;99.20
43999;DHT22;51319;52.162;5.302;2022-12-07T14:47:58;5.90;99.20
43999;DHT22;51319;52.162;5.302;2022-12-07T14:50:49;5.80;99.20
43999;DHT22;51319;52.162;5.302;2022-12-07T14:53:41;5.80;99.20
43999;DHT22;51319;52.162;5.302;2022-12-07T14:56:09;5.70;99.20
43999;DHT22;51319;52.162;5.302;2022-12-07T14:58:36;5.70;99.20
43999;DHT22;51319;52.162;5.302;2022-12-07T15:01:03;5.70;99.30
43999;DHT22;51319;52.162;5.302;2022-12-07T15:03:29;5.60;99.30
43999;DHT22;51319;52.162;5.302;2022-12-07T15:05:57;5.60;99.50
43999;DHT22;51319;52.162;5.302;2022-12-07T15:08:24;5.60;99.60
43999;DHT22;51319;52.162;5.302;2022-12-07T15:10:52;5.60;99.80
43999;DHT22;51319;52.162;5.302;2022-12-07T15:13:20;5.60;99.90
43999;DHT22;51319;52.162;5.302;2022-12-07T15:16:07;5.60;99.90
43999;DHT22;51319;52.162;5.302;2022-12-07T15:18:34;5.50;99.90
43999;DHT22;51319;52.162;5.302;2022-12-07T15:21:01;5.50;99.90
43999;DHT22;51319;52.162;5.302;2022-12-07T15:23:28;5.40;99.90
43999;DHT22;51319;52.162;5.302;2022-12-07T15:25:55;5.40;99.90
43999;DHT22;51319;52.162;5.302;2022-12-07T15:28:22;5.30;99.90
43999;DHT22;51319;52.162;5.302;2022-12-07T15:30:49;5.30;99.90
43999;DHT22;51319;52.162;5.302;2022-12-07T15:33:16;5.20;99.90
43999;DHT22;51319;52.162;5.302;2022-12-07T15:35:44;5.20;99.90
43999;DHT22;51319;52.162;5.302;2022-12-07T15:38:11;5.10;99.90
43999;DHT22;51319;52.162;5.302;2022-12-07T15:40:38;5.10;99.90
43999;DHT22;51319;52.162;5.302;2022-12-07T15:43:05;5.10;99.90
43999;DHT22;51319;52.162;5.302;2022-12-07T15:45:54;5.00;99.90
43999;DHT22;51319;52.162;5.302;2022-12-07T15:48:21;5.00;99.90
43999;DHT22;51319;52.162;5.302;2022-12-07T15:51:08;5.00;99.90
43999;DHT22;51319;52.162;5.302;2022-12-07T15:53:35;4.90;99.90
43999;DHT22;51319;52.162;5.302;2022-12-07T15:56:06;4.90;99.90
43999;DHT22;51319;52.162;5.302;2022-12-07T15:58:34;4.90;99.90
43999;DHT22;51319;52.162;5.302;2022-12-07T16:01:13;4.90;99.90
43999;DHT22;51319;52.162;5.302;2022-12-07T16:03:40;4.90;99.90
43999;DHT22;51319;52.162;5.302;2022-12-07T16:06:07;4.90;99.90
43999;DHT22;51319;52.162;5.302;2022-12-07T16:08:34;4.90;99.90
43999;DHT22;51319;52.162;5.302;2022-12-07T16:11:06;4.80;99.90
43999;DHT22;51319;52.162;5.302;2022-12-07T16:13:33;4.80;99.90
43999;DHT22;51319;52.162;5.302;2022-12-07T16:16:05;4.80;99.90
43999;DHT22;51319;52.162;5.302;2022-12-07T16:18:35;4.70;99.90
43999;DHT22;51319;52.162;5.302;2022-12-07T16:21:02;4.70;99.90
43999;DHT22;51319;52.162;5.302;2022-12-07T16:23:29;4.70;99.90
43999;DHT22;51319;52.162;5.302;2022-12-07T16:26:07;4.70;99.90
43999;DHT22;51319;52.162;5.302;2022-12-07T16:28:35;4.70;99.90
43999;DHT22;51319;52.162;5.302;2022-12-07T16:31:04;4.70;99.90
43999;DHT22;51319;52.162;5.302;2022-12-07T16:33:34;4.70;99.90
43999;DHT22;51319;52.162;5.302;2022-12-07T16:36:03;4.60;99.90
43999;DHT22;51319;52.162;5.302;2022-12-07T16:38:30;4.60;99.90
43999;DHT22;51319;52.162;5.302;2022-12-07T16:40:57;4.60;99.90
43999;DHT22;51319;52.162;5.302;2022-12-07T16:43:24;4.60;99.90
43999;DHT22;51319;52.162;5.302;2022-12-07T16:45:51;4.50;99.90
43999;DHT22;51319;52.162;5.302;2022-12-07T16:48:18;4.50;99.90
43999;DHT22;51319;52.162;5.302;2022-12-07T16:50:45;4.50;99.90
43999;DHT22;51319;52.162;5.302;2022-12-07T16:53:17;4.50;99.90
43999;DHT22;51319;52.162;5.302;2022-12-07T16:55:44;4.40;99.90
43999;DHT22;51319;52.162;5.302;2022-12-07T16:58:17;4.40;99.90
43999;DHT22;51319;52.162;5.302;2022-12-07T17:00:45;4.40;99.90
43999;DHT22;51319;52.162;5.302;2022-12-07T17:03:12;4.40;99.90
43999;DHT22;51319;52.162;5.302;2022-12-07T17:05:46;4.40;99.90
43999;DHT22;51319;52.162;5.302;2022-12-07T17:08:13;4.30;99.90
43999;DHT22;51319;52.162;5.302;2022-12-07T17:10:43;4.40;99.90
43999;DHT22;51319;52.162;5.302;2022-12-07T17:13:11;4.30;99.90
43999;DHT22;51319;52.162;5.302;2022-12-07T17:16:02;4.30;99.90
43999;DHT22;51319;52.162;5.302;2022-12-07T17:18:31;4.30;99.90
43999;DHT22;51319;52.162;5.302;2022-12-07T17:21:07;4.30;99.90
43999;DHT22;51319;52.162;5.302;2022-12-07T17:23:35;4.30;99.90
43999;DHT22;51319;52.162;5.302;2022-12-07T17:26:15;4.40;99.90
43999;DHT22;51319;52.162;5.302;2022-12-07T17:28:42;4.40;99.90
43999;DHT22;51319;52.162;5.302;2022-12-07T17:31:11;4.40;99.90
43999;DHT22;51319;52.162;5.302;2022-12-07T17:33:38;4.40;99.90
43999;DHT22;51319;52.162;5.302;2022-12-07T17:36:20;4.50;99.90
43999;DHT22;51319;52.162;5.302;2022-12-07T17:38:46;4.60;99.90
43999;DHT22;51319;52.162;5.302;2022-12-07T17:41:25;4.60;99.90
43999;DHT22;51319;52.162;5.302;2022-12-07T17:44:13;4.60;99.90
43999;DHT22;51319;52.162;5.302;2022-12-07T17:46:41;4.60;99.90
43999;DHT22;51319;52.162;5.302;2022-12-07T17:49:09;4.60;99.90
43999;DHT22;51319;52.162;5.302;2022-12-07T17:51:37;4.60;99.90
43999;DHT22;51319;52.162;5.302;2022-12-07T17:54:45;4.60;99.90
43999;DHT22;51319;52.162;5.302;2022-12-07T17:57:12;4.50;99.90